sensor_id;sensor_type;location;lat;lon;timestamp;P1;durP1;ratioP1;P2;durP2;ratioP2
7833;SDS011;3962;42.696;23.354;2022-12-01T00:00:31;3.93;;;3.67;;
7833;SDS011;3962;42.696;23.354;2022-12-01T00:03:00;5.00;;;4.60;;
7833;SDS011;3962;42.696;23.354;2022-12-01T00:05:29;4.60;;;4.30;;
7833;SDS011;3962;42.696;23.354;2022-12-01T00:11:28;5.23;;;4.83;;
7833;SDS011;3962;42.696;23.354;2022-12-01T00:14:00;4.60;;;4.30;;
7833;SDS011;3962;42.696;23.354;2022-12-01T00:16:39;5.03;;;4.73;;
7833;SDS011;3962;42.696;23.354;2022-12-01T00:19:18;4.20;;;4.00;;
7833;SDS011;3962;42.696;23.354;2022-12-01T00:21:48;4.73;;;4.30;;
7833;SDS011;3962;42.696;23.354;2022-12-01T00:24:16;5.27;;;4.97;;
7833;SDS011;3962;42.696;23.354;2022-12-01T00:26:46;5.57;;;4.73;;
7833;SDS011;3962;42.696;23.354;2022-12-01T00:29:13;5.03;;;4.63;;
7833;SDS011;3962;42.696;23.354;2022-12-01T00:31:41;3.90;;;3.60;;
7833;SDS011;3962;42.696;23.354;2022-12-01T00:34:11;5.27;;;4.97;;
7833;SDS011;3962;42.696;23.354;2022-12-01T00:39:32;5.27;;;4.77;;
7833;SDS011;3962;42.696;23.354;2022-12-01T00:42:00;5.80;;;5.20;;
7833;SDS011;3962;42.696;23.354;2022-12-01T00:44:35;8.80;;;6.67;;
7833;SDS011;3962;42.696;23.354;2022-12-01T00:47:02;5.40;;;4.80;;
7833;SDS011;3962;42.696;23.354;2022-12-01T00:49:31;5.73;;;5.00;;
7833;SDS011;3962;42.696;23.354;2022-12-01T00:52:00;6.47;;;5.83;;
7833;SDS011;3962;42.696;23.354;2022-12-01T00:54:37;6.07;;;5.40;;
7833;SDS011;3962;42.696;23.354;2022-12-01T00:57:04;5.57;;;5.17;;
7833;SDS011;3962;42.696;23.354;2022-12-01T00:59:31;5.40;;;5.00;;
7833;SDS011;3962;42.696;23.354;2022-12-01T01:01:58;5.23;;;4.83;;
7833;SDS011;3962;42.696;23.354;2022-12-01T01:04:24;4.30;;;4.00;;
7833;SDS011;3962;42.696;23.354;2022-12-01T01:06:57;4.50;;;4.13;;
7833;SDS011;3962;42.696;23.354;2022-12-01T01:09:24;5.00;;;4.47;;
7833;SDS011;3962;42.696;23.354;2022-12-01T01:11:51;4.67;;;4.47;;
7833;SDS011;3962;42.696;23.354;2022-12-01T01:14:18;4.17;;;3.87;;
7833;SDS011;3962;42.696;23.354;2022-12-01T01:16:45;3.83;;;3.63;;
7833;SDS011;3962;42.696;23.354;2022-12-01T01:19:11;4.57;;;4.30;;
7833;SDS011;3962;42.696;23.354;2022-12-01T01:21:38;3.97;;;3.77;;
7833;SDS011;3962;42.696;23.354;2022-12-01T01:24:07;3.97;;;3.67;;
7833;SDS011;3962;42.696;23.354;2022-12-01T01:26:33;4.63;;;4.33;;
7833;SDS011;3962;42.696;23.354;2022-12-01T01:29:03;4.80;;;4.40;;
7833;SDS011;3962;42.696;23.354;2022-12-01T01:31:32;4.40;;;4.10;;
7833;SDS011;3962;42.696;23.354;2022-12-01T01:33:59;4.57;;;4.17;;
7833;SDS011;3962;42.696;23.354;2022-12-01T01:36:27;4.40;;;4.10;;
7833;SDS011;3962;42.696;23.354;2022-12-01T01:38:54;4.27;;;3.97;;
7833;SDS011;3962;42.696;23.354;2022-12-01T01:41:22;4.20;;;3.90;;
7833;SDS011;3962;42.696;23.354;2022-12-01T01:43:50;4.40;;;4.10;;
7833;SDS011;3962;42.696;23.354;2022-12-01T01:46:18;4.00;;;3.73;;
7833;SDS011;3962;42.696;23.354;2022-12-01T01:48:46;3.60;;;3.40;;
7833;SDS011;3962;42.696;23.354;2022-12-01T01:51:16;4.10;;;3.67;;
7833;SDS011;3962;42.696;23.354;2022-12-01T01:53:46;4.47;;;4.10;;
7833;SDS011;3962;42.696;23.354;2022-12-01T01:56:15;4.87;;;4.47;;
7833;SDS011;3962;42.696;23.354;2022-12-01T01:58:43;4.57;;;4.27;;
7833;SDS011;3962;42.696;23.354;2022-12-01T02:01:10;4.70;;;4.50;;
7833;SDS011;3962;42.696;23.354;2022-12-01T02:03:37;4.10;;;3.90;;
7833;SDS011;3962;42.696;23.354;2022-12-01T02:06:06;4.90;;;4.40;;
7833;SDS011;3962;42.696;23.354;2022-12-01T02:08:35;4.83;;;4.50;;
7833;SDS011;3962;42.696;23.354;2022-12-01T02:11:16;5.00;;;4.60;;
7833;SDS011;3962;42.696;23.354;2022-12-01T02:14:02;5.17;;;4.77;;
7833;SDS011;3962;42.696;23.354;2022-12-01T02:16:40;5.60;;;5.20;;
7833;SDS011;3962;42.696;23.354;2022-12-01T02:19:22;5.17;;;4.73;;
7833;SDS011;3962;42.696;23.354;2022-12-01T02:22:11;6.20;;;5.60;;
7833;SDS011;3962;42.696;23.354;2022-12-01T02:27:54;6.10;;;5.57;;
7833;SDS011;3962;42.696;23.354;2022-12-01T02:30:39;7.43;;;5.90;;
7833;SDS011;3962;42.696;23.354;2022-12-01T02:33:10;5.20;;;4.80;;
7833;SDS011;3962;42.696;23.354;2022-12-01T02:35:45;5.90;;;5.40;;
7833;SDS011;3962;42.696;23.354;2022-12-01T02:38:20;5.90;;;5.40;;
7833;SDS011;3962;42.696;23.354;2022-12-01T02:40:53;5.60;;;5.10;;
7833;SDS011;3962;42.696;23.354;2022-12-01T02:43:26;5.87;;;5.33;;
7833;SDS011;3962;42.696;23.354;2022-12-01T02:45:59;6.07;;;5.53;;
7833;SDS011;3962;42.696;23.354;2022-12-01T02:48:31;6.72;;;6.13;;
7833;SDS011;3962;42.696;23.354;2022-12-01T02:51:00;5.50;;;5.10;;
7833;SDS011;3962;42.696;23.354;2022-12-01T02:53:32;6.60;;;5.90;;
7833;SDS011;3962;42.696;23.354;2022-12-01T02:55:59;6.17;;;5.57;;
7833;SDS011;3962;42.696;23.354;2022-12-01T02:58:26;5.93;;;5.43;;
7833;SDS011;3962;42.696;23.354;2022-12-01T03:00:56;5.13;;;4.73;;
7833;SDS011;3962;42.696;23.354;2022-12-01T03:03:40;5.93;;;5.53;;
7833;SDS011;3962;42.696;23.354;2022-12-01T03:06:22;6.47;;;5.60;;
7833;SDS011;3962;42.696;23.354;2022-12-01T03:09:02;5.43;;;4.97;;
7833;SDS011;3962;42.696;23.354;2022-12-01T03:11:37;5.57;;;5.17;;
7833;SDS011;3962;42.696;23.354;2022-12-01T03:14:13;5.33;;;4.83;;
7833;SDS011;3962;42.696;23.354;2022-12-01T03:16:50;5.10;;;4.80;;
7833;SDS011;3962;42.696;23.354;2022-12-01T03:19:20;5.20;;;4.80;;
7833;SDS011;3962;42.696;23.354;2022-12-01T03:21:54;4.93;;;4.53;;
7833;SDS011;3962;42.696;23.354;2022-12-01T03:24:26;4.67;;;4.33;;
7833;SDS011;3962;42.696;23.354;2022-12-01T03:26:57;4.73;;;4.43;;
7833;SDS011;3962;42.696;23.354;2022-12-01T03:29:27;5.60;;;5.20;;
7833;SDS011;3962;42.696;23.354;2022-12-01T03:31:59;5.50;;;5.00;;
7833;SDS011;3962;42.696;23.354;2022-12-01T03:34:31;5.67;;;5.20;;
7833;SDS011;3962;42.696;23.354;2022-12-01T03:37:03;5.13;;;4.83;;
7833;SDS011;3962;42.696;23.354;2022-12-01T03:39:34;5.50;;;5.10;;
7833;SDS011;3962;42.696;23.354;2022-12-01T03:42:06;5.90;;;5.40;;
7833;SDS011;3962;42.696;23.354;2022-12-01T03:44:39;5.33;;;4.93;;
7833;SDS011;3962;42.696;23.354;2022-12-01T03:47:13;4.30;;;3.90;;
7833;SDS011;3962;42.696;23.354;2022-12-01T03:49:42;5.43;;;4.93;;
7833;SDS011;3962;42.696;23.354;2022-12-01T03:52:14;6.10;;;5.53;;
7833;SDS011;3962;42.696;23.354;2022-12-01T03:54:47;6.67;;;5.93;;
7833;SDS011;3962;42.696;23.354;2022-12-01T03:57:19;5.87;;;5.20;;
7833;SDS011;3962;42.696;23.354;2022-12-01T03:59:51;7.37;;;6.73;;
7833;SDS011;3962;42.696;23.354;2022-12-01T04:02:20;8.00;;;6.37;;
7833;SDS011;3962;42.696;23.354;2022-12-01T04:04:50;7.30;;;6.60;;
7833;SDS011;3962;42.696;23.354;2022-12-01T04:07:16;6.43;;;6.03;;
7833;SDS011;3962;42.696;23.354;2022-12-01T04:09:43;7.37;;;6.37;;
7833;SDS011;3962;42.696;23.354;2022-12-01T04:12:10;5.97;;;5.50;;
7833;SDS011;3962;42.696;23.354;2022-12-01T04:14:54;6.43;;;5.93;;
7833;SDS011;3962;42.696;23.354;2022-12-01T04:17:24;6.80;;;6.30;;
7833;SDS011;3962;42.696;23.354;2022-12-01T04:19:51;7.37;;;6.70;;
7833;SDS011;3962;42.696;23.354;2022-12-01T04:22:19;7.13;;;6.53;;
7833;SDS011;3962;42.696;23.354;2022-12-01T04:24:46;5.43;;;5.03;;
7833;SDS011;3962;42.696;23.354;2022-12-01T04:27:13;5.80;;;5.27;;
7833;SDS011;3962;42.696;23.354;2022-12-01T04:29:39;5.87;;;5.47;;
7833;SDS011;3962;42.696;23.354;2022-12-01T04:32:06;5.93;;;5.43;;
7833;SDS011;3962;42.696;23.354;2022-12-01T04:34:34;5.07;;;4.67;;
7833;SDS011;3962;42.696;23.354;2022-12-01T04:37:02;6.93;;;6.33;;
7833;SDS011;3962;42.696;23.354;2022-12-01T04:39:30;5.40;;;5.00;;
7833;SDS011;3962;42.696;23.354;2022-12-01T04:41:57;5.37;;;4.97;;
7833;SDS011;3962;42.696;23.354;2022-12-01T04:44:23;6.77;;;6.00;;
7833;SDS011;3962;42.696;23.354;2022-12-01T04:46:50;6.93;;;6.30;;
7833;SDS011;3962;42.696;23.354;2022-12-01T04:49:18;6.27;;;5.73;;
7833;SDS011;3962;42.696;23.354;2022-12-01T04:51:47;6.40;;;5.85;;
7833;SDS011;3962;42.696;23.354;2022-12-01T04:54:14;9.57;;;8.57;;
7833;SDS011;3962;42.696;23.354;2022-12-01T04:56:41;7.07;;;6.47;;
7833;SDS011;3962;42.696;23.354;2022-12-01T04:59:08;6.47;;;5.90;;
7833;SDS011;3962;42.696;23.354;2022-12-01T05:01:35;6.67;;;6.07;;
7833;SDS011;3962;42.696;23.354;2022-12-01T05:04:02;6.30;;;5.70;;
7833;SDS011;3962;42.696;23.354;2022-12-01T05:06:29;6.83;;;6.23;;
7833;SDS011;3962;42.696;23.354;2022-12-01T05:08:58;7.73;;;7.13;;
7833;SDS011;3962;42.696;23.354;2022-12-01T05:11:27;6.33;;;5.83;;
7833;SDS011;3962;42.696;23.354;2022-12-01T05:13:54;6.77;;;6.27;;
7833;SDS011;3962;42.696;23.354;2022-12-01T05:16:22;8.03;;;7.33;;
7833;SDS011;3962;42.696;23.354;2022-12-01T05:18:51;7.43;;;6.83;;
7833;SDS011;3962;42.696;23.354;2022-12-01T05:21:40;8.90;;;7.33;;
7833;SDS011;3962;42.696;23.354;2022-12-01T05:24:09;8.03;;;7.33;;
7833;SDS011;3962;42.696;23.354;2022-12-01T05:26:36;8.03;;;7.37;;
7833;SDS011;3962;42.696;23.354;2022-12-01T05:29:04;7.27;;;6.67;;
7833;SDS011;3962;42.696;23.354;2022-12-01T05:31:31;7.17;;;6.57;;
7833;SDS011;3962;42.696;23.354;2022-12-01T05:33:58;7.83;;;7.23;;
7833;SDS011;3962;42.696;23.354;2022-12-01T05:36:25;6.47;;;5.97;;
7833;SDS011;3962;42.696;23.354;2022-12-01T05:38:51;7.27;;;6.67;;
7833;SDS011;3962;42.696;23.354;2022-12-01T05:41:20;7.77;;;6.97;;
7833;SDS011;3962;42.696;23.354;2022-12-01T05:43:47;7.03;;;6.43;;
7833;SDS011;3962;42.696;23.354;2022-12-01T05:46:14;9.10;;;7.40;;
7833;SDS011;3962;42.696;23.354;2022-12-01T05:48:41;8.67;;;6.77;;
7833;SDS011;3962;42.696;23.354;2022-12-01T05:51:08;7.77;;;5.73;;
7833;SDS011;3962;42.696;23.354;2022-12-01T05:53:36;6.93;;;6.30;;
7833;SDS011;3962;42.696;23.354;2022-12-01T05:56:03;7.30;;;6.43;;
7833;SDS011;3962;42.696;23.354;2022-12-01T05:58:33;6.47;;;5.60;;
7833;SDS011;3962;42.696;23.354;2022-12-01T06:01:00;7.43;;;6.60;;
7833;SDS011;3962;42.696;23.354;2022-12-01T06:03:27;5.53;;;4.93;;
7833;SDS011;3962;42.696;23.354;2022-12-01T06:05:54;7.10;;;6.33;;
7833;SDS011;3962;42.696;23.354;2022-12-01T06:08:21;9.57;;;6.20;;
7833;SDS011;3962;42.696;23.354;2022-12-01T06:10:48;6.30;;;5.40;;
7833;SDS011;3962;42.696;23.354;2022-12-01T06:13:15;8.63;;;5.70;;
7833;SDS011;3962;42.696;23.354;2022-12-01T06:15:43;8.07;;;5.43;;
7833;SDS011;3962;42.696;23.354;2022-12-01T06:18:10;7.60;;;6.87;;
7833;SDS011;3962;42.696;23.354;2022-12-01T06:20:36;9.40;;;7.73;;
7833;SDS011;3962;42.696;23.354;2022-12-01T06:23:03;17.53;;;10.20;;
7833;SDS011;3962;42.696;23.354;2022-12-01T06:25:30;6.80;;;6.17;;
7833;SDS011;3962;42.696;23.354;2022-12-01T06:27:57;9.07;;;6.57;;
7833;SDS011;3962;42.696;23.354;2022-12-01T06:30:24;8.07;;;7.27;;
7833;SDS011;3962;42.696;23.354;2022-12-01T06:32:53;8.93;;;8.03;;
7833;SDS011;3962;42.696;23.354;2022-12-01T06:35:19;14.03;;;11.40;;
7833;SDS011;3962;42.696;23.354;2022-12-01T06:37:46;8.13;;;7.33;;
7833;SDS011;3962;42.696;23.354;2022-12-01T06:40:13;8.63;;;7.73;;
7833;SDS011;3962;42.696;23.354;2022-12-01T06:42:40;8.37;;;7.37;;
7833;SDS011;3962;42.696;23.354;2022-12-01T06:45:07;12.43;;;8.07;;
7833;SDS011;3962;42.696;23.354;2022-12-01T06:47:35;14.27;;;11.30;;
7833;SDS011;3962;42.696;23.354;2022-12-01T06:50:05;8.40;;;7.37;;
7833;SDS011;3962;42.696;23.354;2022-12-01T06:52:34;11.73;;;7.97;;
7833;SDS011;3962;42.696;23.354;2022-12-01T06:55:00;7.60;;;6.90;;
7833;SDS011;3962;42.696;23.354;2022-12-01T06:57:28;10.43;;;9.33;;
7833;SDS011;3962;42.696;23.354;2022-12-01T06:59:55;11.53;;;8.57;;
7833;SDS011;3962;42.696;23.354;2022-12-01T07:02:22;11.07;;;8.57;;
7833;SDS011;3962;42.696;23.354;2022-12-01T07:04:48;7.03;;;6.33;;
7833;SDS011;3962;42.696;23.354;2022-12-01T07:07:16;7.57;;;6.77;;
7833;SDS011;3962;42.696;23.354;2022-12-01T07:09:43;5.97;;;5.57;;
7833;SDS011;3962;42.696;23.354;2022-12-01T07:12:10;7.30;;;6.60;;
7833;SDS011;3962;42.696;23.354;2022-12-01T07:14:37;7.13;;;6.30;;
7833;SDS011;3962;42.696;23.354;2022-12-01T07:17:06;6.60;;;6.00;;
7833;SDS011;3962;42.696;23.354;2022-12-01T07:19:33;6.43;;;5.83;;
7833;SDS011;3962;42.696;23.354;2022-12-01T07:22:00;7.27;;;6.10;;
7833;SDS011;3962;42.696;23.354;2022-12-01T07:24:29;5.23;;;4.83;;
7833;SDS011;3962;42.696;23.354;2022-12-01T07:26:56;5.17;;;4.77;;
7833;SDS011;3962;42.696;23.354;2022-12-01T07:29:22;5.83;;;5.23;;
7833;SDS011;3962;42.696;23.354;2022-12-01T07:31:49;5.80;;;4.90;;
7833;SDS011;3962;42.696;23.354;2022-12-01T07:34:16;5.57;;;4.83;;
7833;SDS011;3962;42.696;23.354;2022-12-01T07:36:43;6.00;;;5.50;;
7833;SDS011;3962;42.696;23.354;2022-12-01T07:39:09;16.73;;;10.63;;
7833;SDS011;3962;42.696;23.354;2022-12-01T07:41:38;12.93;;;9.70;;
7833;SDS011;3962;42.696;23.354;2022-12-01T07:44:05;10.87;;;7.60;;
7833;SDS011;3962;42.696;23.354;2022-12-01T07:46:31;13.87;;;10.23;;
7833;SDS011;3962;42.696;23.354;2022-12-01T07:48:58;11.10;;;8.30;;
7833;SDS011;3962;42.696;23.354;2022-12-01T07:51:25;11.03;;;8.73;;
7833;SDS011;3962;42.696;23.354;2022-12-01T07:53:52;13.37;;;10.40;;
7833;SDS011;3962;42.696;23.354;2022-12-01T07:56:20;14.97;;;10.40;;
7833;SDS011;3962;42.696;23.354;2022-12-01T07:58:49;16.57;;;10.23;;
7833;SDS011;3962;42.696;23.354;2022-12-01T08:01:16;16.30;;;10.17;;
7833;SDS011;3962;42.696;23.354;2022-12-01T08:03:44;10.47;;;8.87;;
7833;SDS011;3962;42.696;23.354;2022-12-01T08:06:15;8.27;;;7.37;;
7833;SDS011;3962;42.696;23.354;2022-12-01T08:08:42;11.77;;;8.13;;
7833;SDS011;3962;42.696;23.354;2022-12-01T08:11:12;12.57;;;7.87;;
7833;SDS011;3962;42.696;23.354;2022-12-01T08:13:40;10.00;;;7.87;;
7833;SDS011;3962;42.696;23.354;2022-12-01T08:16:09;8.97;;;7.10;;
7833;SDS011;3962;42.696;23.354;2022-12-01T08:18:38;10.03;;;9.03;;
7833;SDS011;3962;42.696;23.354;2022-12-01T08:21:07;9.77;;;7.80;;
7833;SDS011;3962;42.696;23.354;2022-12-01T08:23:35;9.17;;;7.63;;
7833;SDS011;3962;42.696;23.354;2022-12-01T08:26:02;11.40;;;8.60;;
7833;SDS011;3962;42.696;23.354;2022-12-01T08:28:30;10.83;;;8.37;;
7833;SDS011;3962;42.696;23.354;2022-12-01T08:30:57;10.90;;;9.43;;
7833;SDS011;3962;42.696;23.354;2022-12-01T08:33:27;13.30;;;9.73;;
7833;SDS011;3962;42.696;23.354;2022-12-01T08:35:54;13.43;;;11.27;;
7833;SDS011;3962;42.696;23.354;2022-12-01T08:38:21;13.27;;;8.73;;
7833;SDS011;3962;42.696;23.354;2022-12-01T08:40:47;11.20;;;8.23;;
7833;SDS011;3962;42.696;23.354;2022-12-01T08:43:14;9.77;;;7.67;;
7833;SDS011;3962;42.696;23.354;2022-12-01T08:45:41;10.70;;;8.17;;
7833;SDS011;3962;42.696;23.354;2022-12-01T08:48:08;11.07;;;8.93;;
7833;SDS011;3962;42.696;23.354;2022-12-01T08:50:36;15.73;;;10.30;;
7833;SDS011;3962;42.696;23.354;2022-12-01T08:53:03;16.10;;;10.83;;
7833;SDS011;3962;42.696;23.354;2022-12-01T08:55:29;15.13;;;11.27;;
7833;SDS011;3962;42.696;23.354;2022-12-01T08:57:56;13.37;;;10.23;;
7833;SDS011;3962;42.696;23.354;2022-12-01T09:00:23;16.27;;;9.63;;
7833;SDS011;3962;42.696;23.354;2022-12-01T09:02:50;13.93;;;10.80;;
7833;SDS011;3962;42.696;23.354;2022-12-01T09:05:16;11.87;;;8.87;;
7833;SDS011;3962;42.696;23.354;2022-12-01T09:07:45;12.60;;;8.90;;
7833;SDS011;3962;42.696;23.354;2022-12-01T09:10:31;12.03;;;8.90;;
7833;SDS011;3962;42.696;23.354;2022-12-01T09:12:58;11.57;;;8.00;;
7833;SDS011;3962;42.696;23.354;2022-12-01T09:15:26;15.97;;;11.37;;
7833;SDS011;3962;42.696;23.354;2022-12-01T09:17:53;14.17;;;10.73;;
7833;SDS011;3962;42.696;23.354;2022-12-01T09:20:21;20.17;;;11.07;;
7833;SDS011;3962;42.696;23.354;2022-12-01T09:22:49;28.00;;;14.17;;
7833;SDS011;3962;42.696;23.354;2022-12-01T09:25:16;18.10;;;12.67;;
7833;SDS011;3962;42.696;23.354;2022-12-01T09:27:42;18.33;;;12.77;;
7833;SDS011;3962;42.696;23.354;2022-12-01T09:30:09;9.38;;;7.53;;
7833;SDS011;3962;42.696;23.354;2022-12-01T09:32:37;8.67;;;7.53;;
7833;SDS011;3962;42.696;23.354;2022-12-01T09:35:04;7.57;;;6.73;;
7833;SDS011;3962;42.696;23.354;2022-12-01T09:37:31;7.97;;;6.67;;
7833;SDS011;3962;42.696;23.354;2022-12-01T09:39:59;10.33;;;7.40;;
7833;SDS011;3962;42.696;23.354;2022-12-01T09:42:26;9.37;;;7.20;;
7833;SDS011;3962;42.696;23.354;2022-12-01T09:44:53;9.97;;;8.60;;
7833;SDS011;3962;42.696;23.354;2022-12-01T09:47:22;11.70;;;8.07;;
7833;SDS011;3962;42.696;23.354;2022-12-01T09:49:55;9.53;;;6.97;;
7833;SDS011;3962;42.696;23.354;2022-12-01T09:52:26;6.33;;;5.73;;
7833;SDS011;3962;42.696;23.354;2022-12-01T09:54:57;11.77;;;7.20;;
7833;SDS011;3962;42.696;23.354;2022-12-01T09:57:28;10.07;;;7.20;;
7833;SDS011;3962;42.696;23.354;2022-12-01T09:59:59;7.23;;;6.53;;
7833;SDS011;3962;42.696;23.354;2022-12-01T10:02:32;7.00;;;6.30;;
7833;SDS011;3962;42.696;23.354;2022-12-01T10:05:03;10.93;;;6.10;;
7833;SDS011;3962;42.696;23.354;2022-12-01T10:07:32;9.77;;;7.67;;
7833;SDS011;3962;42.696;23.354;2022-12-01T10:10:06;16.20;;;12.87;;
7833;SDS011;3962;42.696;23.354;2022-12-01T10:12:39;9.23;;;8.23;;
7833;SDS011;3962;42.696;23.354;2022-12-01T10:15:13;7.43;;;6.73;;
7833;SDS011;3962;42.696;23.354;2022-12-01T10:17:46;6.20;;;5.57;;
7833;SDS011;3962;42.696;23.354;2022-12-01T10:20:22;4.30;;;4.10;;
7833;SDS011;3962;42.696;23.354;2022-12-01T10:25:53;5.70;;;5.10;;
7833;SDS011;3962;42.696;23.354;2022-12-01T10:28:41;6.70;;;5.23;;
7833;SDS011;3962;42.696;23.354;2022-12-01T10:31:18;7.13;;;6.43;;
7833;SDS011;3962;42.696;23.354;2022-12-01T10:33:52;4.47;;;4.07;;
7833;SDS011;3962;42.696;23.354;2022-12-01T10:36:25;4.90;;;4.40;;
7833;SDS011;3962;42.696;23.354;2022-12-01T10:38:53;6.90;;;5.90;;
7833;SDS011;3962;42.696;23.354;2022-12-01T10:41:21;8.10;;;5.87;;
7833;SDS011;3962;42.696;23.354;2022-12-01T10:43:51;9.20;;;8.30;;
7833;SDS011;3962;42.696;23.354;2022-12-01T10:46:26;7.93;;;6.87;;
7833;SDS011;3962;42.696;23.354;2022-12-01T10:48:59;7.83;;;7.13;;
7833;SDS011;3962;42.696;23.354;2022-12-01T10:51:44;10.30;;;8.00;;
7833;SDS011;3962;42.696;23.354;2022-12-01T10:54:17;9.90;;;7.87;;
7833;SDS011;3962;42.696;23.354;2022-12-01T10:56:47;8.10;;;6.70;;
7833;SDS011;3962;42.696;23.354;2022-12-01T10:59:26;8.87;;;6.70;;
7833;SDS011;3962;42.696;23.354;2022-12-01T11:01:57;8.50;;;7.40;;
7833;SDS011;3962;42.696;23.354;2022-12-01T11:04:34;11.20;;;7.40;;
7833;SDS011;3962;42.696;23.354;2022-12-01T11:07:13;13.53;;;9.70;;
7833;SDS011;3962;42.696;23.354;2022-12-01T11:09:43;11.67;;;9.30;;
7833;SDS011;3962;42.696;23.354;2022-12-01T11:12:14;9.37;;;8.27;;
7833;SDS011;3962;42.696;23.354;2022-12-01T11:14:46;15.43;;;10.07;;
7833;SDS011;3962;42.696;23.354;2022-12-01T11:17:25;10.27;;;7.73;;
7833;SDS011;3962;42.696;23.354;2022-12-01T11:19:54;11.00;;;8.00;;
7833;SDS011;3962;42.696;23.354;2022-12-01T11:22:22;12.10;;;9.90;;
7833;SDS011;3962;42.696;23.354;2022-12-01T11:24:55;11.87;;;8.37;;
7833;SDS011;3962;42.696;23.354;2022-12-01T11:27:29;12.23;;;9.73;;
7833;SDS011;3962;42.696;23.354;2022-12-01T11:30:00;19.47;;;10.83;;
7833;SDS011;3962;42.696;23.354;2022-12-01T11:32:30;15.10;;;11.67;;
7833;SDS011;3962;42.696;23.354;2022-12-01T11:35:00;15.50;;;11.37;;
7833;SDS011;3962;42.696;23.354;2022-12-01T11:37:29;13.47;;;9.23;;
7833;SDS011;3962;42.696;23.354;2022-12-01T11:40:08;14.70;;;11.13;;
7833;SDS011;3962;42.696;23.354;2022-12-01T11:42:46;12.67;;;9.17;;
7833;SDS011;3962;42.696;23.354;2022-12-01T11:45:23;12.43;;;9.80;;
7833;SDS011;3962;42.696;23.354;2022-12-01T11:48:01;14.17;;;9.73;;
7833;SDS011;3962;42.696;23.354;2022-12-01T11:50:31;13.87;;;10.00;;
7833;SDS011;3962;42.696;23.354;2022-12-01T11:52:59;24.53;;;9.80;;
7833;SDS011;3962;42.696;23.354;2022-12-01T11:55:26;19.77;;;10.93;;
7833;SDS011;3962;42.696;23.354;2022-12-01T11:57:56;10.60;;;8.83;;
7833;SDS011;3962;42.696;23.354;2022-12-01T12:00:26;12.27;;;8.93;;
7833;SDS011;3962;42.696;23.354;2022-12-01T12:02:58;9.67;;;8.43;;
7833;SDS011;3962;42.696;23.354;2022-12-01T12:05:39;9.47;;;7.93;;
7833;SDS011;3962;42.696;23.354;2022-12-01T12:08:16;14.30;;;12.20;;
7833;SDS011;3962;42.696;23.354;2022-12-01T12:10:54;8.83;;;7.93;;
7833;SDS011;3962;42.696;23.354;2022-12-01T12:13:34;11.87;;;8.93;;
7833;SDS011;3962;42.696;23.354;2022-12-01T12:16:09;9.27;;;6.20;;
7833;SDS011;3962;42.696;23.354;2022-12-01T12:18:48;8.97;;;6.57;;
7833;SDS011;3962;42.696;23.354;2022-12-01T12:21:30;8.17;;;7.37;;
7833;SDS011;3962;42.696;23.354;2022-12-01T12:24:09;11.77;;;8.40;;
7833;SDS011;3962;42.696;23.354;2022-12-01T12:26:51;9.47;;;8.47;;
7833;SDS011;3962;42.696;23.354;2022-12-01T12:29:30;14.97;;;8.80;;
7833;SDS011;3962;42.696;23.354;2022-12-01T12:32:15;6.80;;;6.10;;
7833;SDS011;3962;42.696;23.354;2022-12-01T12:34:52;12.00;;;7.90;;
7833;SDS011;3962;42.696;23.354;2022-12-01T12:37:30;7.93;;;6.60;;
7833;SDS011;3962;42.696;23.354;2022-12-01T12:40:25;13.17;;;8.47;;
7833;SDS011;3962;42.696;23.354;2022-12-01T12:43:07;22.40;;;10.17;;
7833;SDS011;3962;42.696;23.354;2022-12-01T12:45:50;21.53;;;11.13;;
7833;SDS011;3962;42.696;23.354;2022-12-01T12:48:27;10.93;;;8.23;;
7833;SDS011;3962;42.696;23.354;2022-12-01T12:51:10;15.50;;;9.60;;
7833;SDS011;3962;42.696;23.354;2022-12-01T12:53:42;10.03;;;8.00;;
7833;SDS011;3962;42.696;23.354;2022-12-01T12:56:14;12.33;;;9.03;;
7833;SDS011;3962;42.696;23.354;2022-12-01T12:58:48;21.63;;;13.17;;
7833;SDS011;3962;42.696;23.354;2022-12-01T13:01:22;15.20;;;9.10;;
7833;SDS011;3962;42.696;23.354;2022-12-01T13:03:54;14.47;;;9.63;;
7833;SDS011;3962;42.696;23.354;2022-12-01T13:06:27;18.03;;;10.80;;
7833;SDS011;3962;42.696;23.354;2022-12-01T13:08:58;10.70;;;7.30;;
7833;SDS011;3962;42.696;23.354;2022-12-01T13:11:31;12.90;;;9.80;;
7833;SDS011;3962;42.696;23.354;2022-12-01T13:14:03;14.40;;;11.00;;
7833;SDS011;3962;42.696;23.354;2022-12-01T13:16:35;18.13;;;10.70;;
7833;SDS011;3962;42.696;23.354;2022-12-01T13:19:06;14.00;;;10.03;;
7833;SDS011;3962;42.696;23.354;2022-12-01T13:21:39;12.77;;;10.63;;
7833;SDS011;3962;42.696;23.354;2022-12-01T13:24:09;12.93;;;11.10;;
7833;SDS011;3962;42.696;23.354;2022-12-01T13:26:38;14.17;;;12.50;;
7833;SDS011;3962;42.696;23.354;2022-12-01T13:29:10;14.83;;;12.43;;
7833;SDS011;3962;42.696;23.354;2022-12-01T13:31:43;9.97;;;8.63;;
7833;SDS011;3962;42.696;23.354;2022-12-01T13:34:18;15.03;;;10.33;;
7833;SDS011;3962;42.696;23.354;2022-12-01T13:36:48;10.57;;;9.47;;
7833;SDS011;3962;42.696;23.354;2022-12-01T13:39:17;15.07;;;10.13;;
7833;SDS011;3962;42.696;23.354;2022-12-01T13:41:55;12.63;;;9.63;;
7833;SDS011;3962;42.696;23.354;2022-12-01T13:44:24;15.43;;;11.07;;
7833;SDS011;3962;42.696;23.354;2022-12-01T13:46:56;12.63;;;10.47;;
7833;SDS011;3962;42.696;23.354;2022-12-01T13:49:39;14.77;;;11.00;;
7833;SDS011;3962;42.696;23.354;2022-12-01T13:52:25;13.93;;;10.60;;
7833;SDS011;3962;42.696;23.354;2022-12-01T14:00:47;16.33;;;10.33;;
7833;SDS011;3962;42.696;23.354;2022-12-01T14:03:36;14.73;;;11.40;;
7833;SDS011;3962;42.696;23.354;2022-12-01T14:06:06;15.10;;;11.67;;
7833;SDS011;3962;42.696;23.354;2022-12-01T14:08:35;9.63;;;8.53;;
7833;SDS011;3962;42.696;23.354;2022-12-01T14:11:16;14.50;;;7.70;;
7833;SDS011;3962;42.696;23.354;2022-12-01T14:13:48;21.37;;;10.90;;
7833;SDS011;3962;42.696;23.354;2022-12-01T14:16:18;8.97;;;8.07;;
7833;SDS011;3962;42.696;23.354;2022-12-01T14:18:49;8.30;;;7.00;;
7833;SDS011;3962;42.696;23.354;2022-12-01T14:24:17;8.67;;;7.00;;
7833;SDS011;3962;42.696;23.354;2022-12-01T14:26:47;8.20;;;7.13;;
7833;SDS011;3962;42.696;23.354;2022-12-01T14:29:28;5.93;;;5.43;;
7833;SDS011;3962;42.696;23.354;2022-12-01T14:34:56;5.90;;;5.33;;
7833;SDS011;3962;42.696;23.354;2022-12-01T14:37:31;5.33;;;4.93;;
7833;SDS011;3962;42.696;23.354;2022-12-01T14:40:04;6.27;;;5.67;;
7833;SDS011;3962;42.696;23.354;2022-12-01T14:42:37;6.63;;;5.27;;
7833;SDS011;3962;42.696;23.354;2022-12-01T14:45:24;5.63;;;5.13;;
7833;SDS011;3962;42.696;23.354;2022-12-01T14:47:56;5.87;;;5.37;;
7833;SDS011;3962;42.696;23.354;2022-12-01T14:50:31;5.97;;;5.40;;
7833;SDS011;3962;42.696;23.354;2022-12-01T14:53:06;6.40;;;5.90;;
7833;SDS011;3962;42.696;23.354;2022-12-01T14:55:41;5.50;;;5.00;;
7833;SDS011;3962;42.696;23.354;2022-12-01T14:58:16;5.63;;;5.13;;
7833;SDS011;3962;42.696;23.354;2022-12-01T15:00:51;6.93;;;6.23;;
7833;SDS011;3962;42.696;23.354;2022-12-01T15:03:23;6.73;;;6.17;;
7833;SDS011;3962;42.696;23.354;2022-12-01T15:05:55;5.87;;;5.43;;
7833;SDS011;3962;42.696;23.354;2022-12-01T15:08:22;8.23;;;7.53;;
7833;SDS011;3962;42.696;23.354;2022-12-01T15:10:52;7.73;;;6.90;;
7833;SDS011;3962;42.696;23.354;2022-12-01T15:13:21;9.47;;;8.40;;
7833;SDS011;3962;42.696;23.354;2022-12-01T15:15:52;8.40;;;7.57;;
7833;SDS011;3962;42.696;23.354;2022-12-01T15:18:22;9.73;;;6.70;;
7833;SDS011;3962;42.696;23.354;2022-12-01T15:20:55;9.47;;;7.70;;
7833;SDS011;3962;42.696;23.354;2022-12-01T15:23:26;11.07;;;9.83;;
7833;SDS011;3962;42.696;23.354;2022-12-01T15:25:53;9.63;;;8.40;;
7833;SDS011;3962;42.696;23.354;2022-12-01T15:28:21;13.67;;;9.60;;
7833;SDS011;3962;42.696;23.354;2022-12-01T15:30:55;20.53;;;10.83;;
7833;SDS011;3962;42.696;23.354;2022-12-01T15:33:23;38.53;;;15.60;;
7833;SDS011;3962;42.696;23.354;2022-12-01T15:35:53;65.37;;;25.00;;
7833;SDS011;3962;42.696;23.354;2022-12-01T15:38:24;26.80;;;18.07;;
7833;SDS011;3962;42.696;23.354;2022-12-01T15:40:53;25.43;;;15.77;;